sensor_id;sensor_type;location;lat;lon;timestamp;pressure;altitude;pressure_sealevel;temperature;humidity
42847;BME280;28495;49.916;14.536;2023-04-10T00:00:30;97698.47;;;7.31;69.36
42847;BME280;28495;49.916;14.536;2023-04-10T00:05:56;97697.44;;;7.34;69.59
42847;BME280;28495;49.916;14.536;2023-04-10T00:11:17;97694.78;;;7.48;69.61
42847;BME280;28495;49.916;14.536;2023-04-10T00:16:38;97696.34;;;7.51;69.22
42847;BME280;28495;49.916;14.536;2023-04-10T00:21:59;97688.72;;;7.35;69.14
42847;BME280;28495;49.916;14.536;2023-04-10T00:27:19;97684.59;;;7.18;68.70
42847;BME280;28495;49.916;14.536;2023-04-10T00:32:40;97680.75;;;6.96;68.84
42847;BME280;28495;49.916;14.536;2023-04-10T00:38:01;97670.22;;;7.12;69.75
42847;BME280;28495;49.916;14.536;2023-04-10T00:43:23;97677.75;;;7.17;69.11
42847;BME280;28495;49.916;14.536;2023-04-10T00:48:44;97674.63;;;6.97;68.91
42847;BME280;28495;49.916;14.536;2023-04-10T00:54:05;97675.22;;;6.88;69.13
42847;BME280;28495;49.916;14.536;2023-04-10T00:59:26;97668.03;;;7.06;69.63
42847;BME280;28495;49.916;14.536;2023-04-10T01:04:47;97659.72;;;7.28;69.80
42847;BME280;28495;49.916;14.536;2023-04-10T01:10:22;97658.69;;;7.31;69.16
42847;BME280;28495;49.916;14.536;2023-04-10T01:15:52;97645.34;;;7.37;69.58
42847;BME280;28495;49.916;14.536;2023-04-10T01:21:19;97642.63;;;7.39;69.15
42847;BME280;28495;49.916;14.536;2023-04-10T01:32:34;97650.41;;;7.11;69.29
42847;BME280;28495;49.916;14.536;2023-04-10T01:38:00;97648.84;;;7.09;69.37
42847;BME280;28495;49.916;14.536;2023-04-10T01:43:22;97644.28;;;7.12;69.17
42847;BME280;28495;49.916;14.536;2023-04-10T01:48:48;97646.03;;;7.26;69.82
42847;BME280;28495;49.916;14.536;2023-04-10T01:54:11;97647.81;;;7.39;69.52
42847;BME280;28495;49.916;14.536;2023-04-10T01:59:32;97642.75;;;7.37;69.26
42847;BME280;28495;49.916;14.536;2023-04-10T02:04:53;97646.56;;;7.31;69.29
42847;BME280;28495;49.916;14.536;2023-04-10T02:10:22;97657.50;;;7.22;69.23
42847;BME280;28495;49.916;14.536;2023-04-10T02:15:45;97647.09;;;7.09;69.04
42847;BME280;28495;49.916;14.536;2023-04-10T02:21:07;97642.59;;;6.98;69.25
42847;BME280;28495;49.916;14.536;2023-04-10T02:26:28;97650.19;;;7.01;69.42
42847;BME280;28495;49.916;14.536;2023-04-10T02:31:49;97641.56;;;6.86;69.18
42847;BME280;28495;49.916;14.536;2023-04-10T02:37:12;97643.88;;;6.91;69.32
42847;BME280;28495;49.916;14.536;2023-04-10T02:42:33;97638.63;;;6.93;69.56
42847;BME280;28495;49.916;14.536;2023-04-10T02:47:56;97643.59;;;6.96;69.13
42847;BME280;28495;49.916;14.536;2023-04-10T02:53:17;97652.53;;;6.77;68.87
42847;BME280;28495;49.916;14.536;2023-04-10T02:58:39;97654.38;;;6.61;68.84
42847;BME280;28495;49.916;14.536;2023-04-10T03:04:01;97650.13;;;6.60;69.71
42847;BME280;28495;49.916;14.536;2023-04-10T03:09:28;97661.13;;;6.78;69.58
42847;BME280;28495;49.916;14.536;2023-04-10T03:14:49;97660.03;;;6.82;69.79
42847;BME280;28495;49.916;14.536;2023-04-10T03:20:11;97659.84;;;6.70;69.11
42847;BME280;28495;49.916;14.536;2023-04-10T03:25:35;97671.03;;;6.56;69.33
42847;BME280;28495;49.916;14.536;2023-04-10T03:30:59;97658.81;;;6.73;70.09
42847;BME280;28495;49.916;14.536;2023-04-10T03:36:23;97656.28;;;7.00;70.09
42847;BME280;28495;49.916;14.536;2023-04-10T03:41:43;97654.28;;;7.19;69.97
42847;BME280;28495;49.916;14.536;2023-04-10T03:47:05;97661.47;;;7.28;69.81
42847;BME280;28495;49.916;14.536;2023-04-10T03:52:25;97663.69;;;7.34;69.61
42847;BME280;28495;49.916;14.536;2023-04-10T03:57:48;97649.53;;;7.25;68.98
42847;BME280;28495;49.916;14.536;2023-04-10T04:03:12;97664.25;;;6.97;68.60
42847;BME280;28495;49.916;14.536;2023-04-10T04:08:56;97670.56;;;6.93;68.83
42847;BME280;28495;49.916;14.536;2023-04-10T04:14:49;97682.78;;;6.77;68.91
42847;BME280;28495;49.916;14.536;2023-04-10T04:20:19;97683.72;;;6.76;69.06
42847;BME280;28495;49.916;14.536;2023-04-10T04:26:03;97681.41;;;6.71;69.10
42847;BME280;28495;49.916;14.536;2023-04-10T04:31:42;97681.31;;;6.58;69.03
42847;BME280;28495;49.916;14.536;2023-04-10T04:37:10;97681.22;;;6.74;69.45
42847;BME280;28495;49.916;14.536;2023-04-10T04:42:40;97690.97;;;6.56;68.87
42847;BME280;28495;49.916;14.536;2023-04-10T04:48:18;97686.69;;;6.55;69.11
42847;BME280;28495;49.916;14.536;2023-04-10T04:54:05;97693.28;;;6.61;69.43
42847;BME280;28495;49.916;14.536;2023-04-10T05:00:04;97695.56;;;6.65;69.35
42847;BME280;28495;49.916;14.536;2023-04-10T05:05:44;97702.25;;;6.69;69.04
42847;BME280;28495;49.916;14.536;2023-04-10T05:11:40;97698.16;;;6.94;69.30
42847;BME280;28495;49.916;14.536;2023-04-10T05:17:11;97706.78;;;6.95;69.06
42847;BME280;28495;49.916;14.536;2023-04-10T05:22:47;97696.09;;;7.14;69.51
42847;BME280;28495;49.916;14.536;2023-04-10T05:28:25;97702.09;;;7.56;69.41
42847;BME280;28495;49.916;14.536;2023-04-10T05:33:46;97710.06;;;7.81;69.12
42847;BME280;28495;49.916;14.536;2023-04-10T05:39:16;97707.72;;;7.90;68.50
42847;BME280;28495;49.916;14.536;2023-04-10T05:45:04;97711.91;;;8.06;68.38
42847;BME280;28495;49.916;14.536;2023-04-10T05:50:47;97715.19;;;7.95;68.25
42847;BME280;28495;49.916;14.536;2023-04-10T05:56:28;97713.75;;;8.04;68.66
42847;BME280;28495;49.916;14.536;2023-04-10T06:02:02;97718.03;;;8.05;67.88
42847;BME280;28495;49.916;14.536;2023-04-10T06:07:23;97719.50;;;8.22;67.90
42847;BME280;28495;49.916;14.536;2023-04-10T06:12:44;97721.00;;;8.78;69.56
42847;BME280;28495;49.916;14.536;2023-04-10T06:18:06;97714.06;;;9.15;69.10
42847;BME280;28495;49.916;14.536;2023-04-10T06:23:29;97711.88;;;9.22;68.14
42847;BME280;28495;49.916;14.536;2023-04-10T06:28:50;97723.09;;;8.73;67.18
42847;BME280;28495;49.916;14.536;2023-04-10T06:34:12;97732.41;;;8.36;67.41
42847;BME280;28495;49.916;14.536;2023-04-10T06:39:43;97727.53;;;8.45;68.37
42847;BME280;28495;49.916;14.536;2023-04-10T06:45:04;97718.06;;;8.44;67.63
42847;BME280;28495;49.916;14.536;2023-04-10T06:50:26;97730.91;;;8.73;68.03
42847;BME280;28495;49.916;14.536;2023-04-10T06:55:47;97727.56;;;8.83;68.32
42847;BME280;28495;49.916;14.536;2023-04-10T07:01:08;97724.81;;;9.48;68.70
42847;BME280;28495;49.916;14.536;2023-04-10T07:06:29;97724.75;;;10.21;69.90
42847;BME280;28495;49.916;14.536;2023-04-10T07:11:50;97721.50;;;10.42;66.64
42847;BME280;28495;49.916;14.536;2023-04-10T07:17:12;97728.13;;;9.50;65.72
42847;BME280;28495;49.916;14.536;2023-04-10T07:22:32;97722.44;;;9.32;66.45
42847;BME280;28495;49.916;14.536;2023-04-10T07:27:53;97717.22;;;9.45;66.45
42847;BME280;28495;49.916;14.536;2023-04-10T07:33:14;97717.59;;;9.76;66.88
42847;BME280;28495;49.916;14.536;2023-04-10T07:38:35;97721.75;;;9.79;66.10
42847;BME280;28495;49.916;14.536;2023-04-10T07:43:57;97726.75;;;9.57;65.52
42847;BME280;28495;49.916;14.536;2023-04-10T07:49:17;97722.75;;;9.40;65.10
42847;BME280;28495;49.916;14.536;2023-04-10T07:54:38;97717.34;;;9.43;66.23
42847;BME280;28495;49.916;14.536;2023-04-10T07:59:59;97710.34;;;9.68;67.03
42847;BME280;28495;49.916;14.536;2023-04-10T08:05:20;97708.44;;;9.95;66.53
42847;BME280;28495;49.916;14.536;2023-04-10T08:10:42;97705.66;;;10.56;68.84
42847;BME280;28495;49.916;14.536;2023-04-10T08:16:03;97699.47;;;10.46;66.02
42847;BME280;28495;49.916;14.536;2023-04-10T08:21:26;97699.25;;;10.49;66.04
42847;BME280;28495;49.916;14.536;2023-04-10T08:26:47;97697.97;;;10.89;68.54
42847;BME280;28495;49.916;14.536;2023-04-10T08:32:08;97697.34;;;11.96;68.04
42847;BME280;28495;49.916;14.536;2023-04-10T08:37:29;97699.41;;;11.81;64.80
42847;BME280;28495;49.916;14.536;2023-04-10T08:42:49;97692.25;;;11.94;66.01
42847;BME280;28495;49.916;14.536;2023-04-10T08:48:10;97691.66;;;12.23;64.96
42847;BME280;28495;49.916;14.536;2023-04-10T08:53:36;97694.59;;;12.09;63.87
42847;BME280;28495;49.916;14.536;2023-04-10T08:59:01;97699.47;;;11.25;62.79
42847;BME280;28495;49.916;14.536;2023-04-10T09:04:25;97694.63;;;10.64;63.11
42847;BME280;28495;49.916;14.536;2023-04-10T09:09:47;97693.81;;;10.16;63.25
42847;BME280;28495;49.916;14.536;2023-04-10T09:15:08;97682.00;;;10.24;63.82
42847;BME280;28495;49.916;14.536;2023-04-10T09:20:30;97687.03;;;10.38;63.98
42847;BME280;28495;49.916;14.536;2023-04-10T09:25:52;97685.63;;;10.57;64.27
42847;BME280;28495;49.916;14.536;2023-04-10T09:31:35;97687.28;;;10.80;64.05
42847;BME280;28495;49.916;14.536;2023-04-10T09:36:58;97677.09;;;10.77;64.32
42847;BME280;28495;49.916;14.536;2023-04-10T09:42:32;97670.19;;;10.76;63.67
42847;BME280;28495;49.916;14.536;2023-04-10T09:48:07;97653.47;;;10.90;64.16
42847;BME280;28495;49.916;14.536;2023-04-10T09:53:27;97645.50;;;11.15;64.31
42847;BME280;28495;49.916;14.536;2023-04-10T09:58:49;97644.41;;;11.17;62.85
42847;BME280;28495;49.916;14.536;2023-04-10T10:04:10;97639.09;;;11.19;63.14
42847;BME280;28495;49.916;14.536;2023-04-10T10:09:36;97643.91;;;11.35;62.96
42847;BME280;28495;49.916;14.536;2023-04-10T10:20:31;97616.31;;;11.42;62.27
42847;BME280;28495;49.916;14.536;2023-04-10T10:25:55;97617.81;;;11.56;62.68
42847;BME280;28495;49.916;14.536;2023-04-10T10:31:18;97605.59;;;11.56;61.97
42847;BME280;28495;49.916;14.536;2023-04-10T10:36:39;97613.88;;;11.29;61.69
42847;BME280;28495;49.916;14.536;2023-04-10T10:47:59;97609.13;;;11.34;61.94
42847;BME280;28495;49.916;14.536;2023-04-10T10:53:33;97600.31;;;11.35;61.00
42847;BME280;28495;49.916;14.536;2023-04-10T10:58:55;97594.44;;;11.22;61.06
42847;BME280;28495;49.916;14.536;2023-04-10T11:04:44;97580.09;;;11.16;61.34
42847;BME280;28495;49.916;14.536;2023-04-10T11:10:06;97571.34;;;11.38;61.25
42847;BME280;28495;49.916;14.536;2023-04-10T11:15:27;97558.44;;;11.58;60.73
42847;BME280;28495;49.916;14.536;2023-04-10T11:21:08;97556.66;;;11.80;61.24
42847;BME280;28495;49.916;14.536;2023-04-10T11:31:58;97546.13;;;11.91;60.03
42847;BME280;28495;49.916;14.536;2023-04-10T11:37:22;97531.97;;;11.94;60.30
42847;BME280;28495;49.916;14.536;2023-04-10T11:42:43;97527.06;;;12.00;59.42
42847;BME280;28495;49.916;14.536;2023-04-10T11:48:04;97525.00;;;12.04;59.14
42847;BME280;28495;49.916;14.536;2023-04-10T11:53:25;97521.25;;;11.97;58.35
42847;BME280;28495;49.916;14.536;2023-04-10T11:58:49;97517.78;;;11.86;58.36
42847;BME280;28495;49.916;14.536;2023-04-10T12:04:15;97514.38;;;11.96;59.14
42847;BME280;28495;49.916;14.536;2023-04-10T12:09:37;97503.75;;;12.18;58.87
42847;BME280;28495;49.916;14.536;2023-04-10T12:14:58;97499.44;;;12.39;58.24
42847;BME280;28495;49.916;14.536;2023-04-10T12:20:20;97503.00;;;12.38;58.15
42847;BME280;28495;49.916;14.536;2023-04-10T12:25:44;97489.53;;;12.52;58.00
42847;BME280;28495;49.916;14.536;2023-04-10T12:31:05;97480.56;;;12.45;57.56
42847;BME280;28495;49.916;14.536;2023-04-10T12:36:28;97476.56;;;12.50;58.16
42847;BME280;28495;49.916;14.536;2023-04-10T12:41:50;97462.28;;;12.64;57.88
42847;BME280;28495;49.916;14.536;2023-04-10T12:47:11;97462.31;;;12.74;57.56
42847;BME280;28495;49.916;14.536;2023-04-10T12:52:33;97461.47;;;12.74;57.03
42847;BME280;28495;49.916;14.536;2023-04-10T12:57:54;97438.56;;;12.56;56.49
42847;BME280;28495;49.916;14.536;2023-04-10T13:03:16;97430.31;;;12.71;57.06
42847;BME280;28495;49.916;14.536;2023-04-10T13:08:38;97432.66;;;12.74;56.36
42847;BME280;28495;49.916;14.536;2023-04-10T13:13:59;97422.09;;;12.85;56.18
42847;BME280;28495;49.916;14.536;2023-04-10T13:19:19;97401.41;;;12.82;56.26
42847;BME280;28495;49.916;14.536;2023-04-10T13:24:41;97396.84;;;12.94;56.49
42847;BME280;28495;49.916;14.536;2023-04-10T13:30:01;97397.94;;;13.11;56.08
42847;BME280;28495;49.916;14.536;2023-04-10T13:35:23;97389.69;;;12.86;55.28
42847;BME280;28495;49.916;14.536;2023-04-10T13:40:44;97379.63;;;12.91;56.21
42847;BME280;28495;49.916;14.536;2023-04-10T13:46:05;97382.53;;;12.88;55.25
42847;BME280;28495;49.916;14.536;2023-04-10T13:51:26;97373.44;;;12.73;55.29
42847;BME280;28495;49.916;14.536;2023-04-10T13:56:47;97362.44;;;12.69;55.69
42847;BME280;28495;49.916;14.536;2023-04-10T14:02:09;97358.16;;;12.88;55.67
42847;BME280;28495;49.916;14.536;2023-04-10T14:07:33;97352.19;;;13.15;55.77
42847;BME280;28495;49.916;14.536;2023-04-10T14:12:54;97349.47;;;13.35;55.27
42847;BME280;28495;49.916;14.536;2023-04-10T14:18:15;97348.50;;;13.36;55.10
42847;BME280;28495;49.916;14.536;2023-04-10T14:23:38;97349.63;;;13.33;54.63
42847;BME280;28495;49.916;14.536;2023-04-10T14:28:58;97337.81;;;13.19;54.10
42847;BME280;28495;49.916;14.536;2023-04-10T14:34:19;97330.78;;;13.20;54.53
42847;BME280;28495;49.916;14.536;2023-04-10T14:39:40;97324.75;;;13.09;54.25
42847;BME280;28495;49.916;14.536;2023-04-10T14:45:00;97334.69;;;12.96;54.11
42847;BME280;28495;49.916;14.536;2023-04-10T14:50:21;97333.63;;;12.89;54.06
42847;BME280;28495;49.916;14.536;2023-04-10T14:55:42;97320.53;;;12.99;54.32
42847;BME280;28495;49.916;14.536;2023-04-10T15:01:02;97319.94;;;13.05;54.11
42847;BME280;28495;49.916;14.536;2023-04-10T15:06:23;97315.81;;;13.02;53.90
42847;BME280;28495;49.916;14.536;2023-04-10T15:11:47;97314.16;;;13.01;53.86
42847;BME280;28495;49.916;14.536;2023-04-10T15:17:07;97302.44;;;13.05;53.74
42847;BME280;28495;49.916;14.536;2023-04-10T15:22:28;97293.44;;;13.18;53.67
42847;BME280;28495;49.916;14.536;2023-04-10T15:27:49;97294.13;;;13.20;53.70
42847;BME280;28495;49.916;14.536;2023-04-10T15:33:10;97290.94;;;13.16;53.53
42847;BME280;28495;49.916;14.536;2023-04-10T15:38:33;97279.31;;;13.01;53.41
42847;BME280;28495;49.916;14.536;2023-04-10T15:43:54;97283.63;;;12.82;53.10
42847;BME280;28495;49.916;14.536;2023-04-10T15:49:15;97274.25;;;12.79;53.52
42847;BME280;28495;49.916;14.536;2023-04-10T15:54:53;97258.28;;;12.73;53.40
42847;BME280;28495;49.916;14.536;2023-04-10T16:00:14;97251.81;;;12.77;53.28
42847;BME280;28495;49.916;14.536;2023-04-10T16:05:35;97247.31;;;12.59;52.92
42847;BME280;28495;49.916;14.536;2023-04-10T16:10:56;97240.19;;;12.42;53.00
42847;BME280;28495;49.916;14.536;2023-04-10T16:16:17;97225.59;;;12.29;52.80
42847;BME280;28495;49.916;14.536;2023-04-10T16:21:38;97219.69;;;12.27;52.76
42847;BME280;28495;49.916;14.536;2023-04-10T16:26:59;97210.78;;;12.20;52.64
42847;BME280;28495;49.916;14.536;2023-04-10T16:32:22;97213.66;;;12.17;52.87
42847;BME280;28495;49.916;14.536;2023-04-10T16:37:42;97200.03;;;12.13;52.60
42847;BME280;28495;49.916;14.536;2023-04-10T16:43:03;97191.09;;;12.06;52.55
42847;BME280;28495;49.916;14.536;2023-04-10T16:48:24;97185.28;;;11.93;52.51
42847;BME280;28495;49.916;14.536;2023-04-10T16:53:45;97171.53;;;11.81;52.78
42847;BME280;28495;49.916;14.536;2023-04-10T16:59:06;97172.91;;;11.75;52.87
42847;BME280;28495;49.916;14.536;2023-04-10T17:04:27;97163.56;;;11.72;53.33
42847;BME280;28495;49.916;14.536;2023-04-10T17:09:49;97159.84;;;11.75;53.26
42847;BME280;28495;49.916;14.536;2023-04-10T17:15:10;97155.63;;;11.64;53.00
42847;BME280;28495;49.916;14.536;2023-04-10T17:20:34;97154.75;;;11.54;53.02
42847;BME280;28495;49.916;14.536;2023-04-10T17:25:56;97160.25;;;11.51;53.14
42847;BME280;28495;49.916;14.536;2023-04-10T17:31:17;97153.78;;;11.45;53.14
42847;BME280;28495;49.916;14.536;2023-04-10T17:36:37;97159.16;;;11.43;53.60
42847;BME280;28495;49.916;14.536;2023-04-10T17:41:58;97159.16;;;11.43;53.72
42847;BME280;28495;49.916;14.536;2023-04-10T17:47:19;97157.50;;;11.42;53.81
42847;BME280;28495;49.916;14.536;2023-04-10T17:52:40;97146.66;;;11.47;54.33
42847;BME280;28495;49.916;14.536;2023-04-10T17:58:01;97145.69;;;11.58;54.15
42847;BME280;28495;49.916;14.536;2023-04-10T18:03:21;97145.69;;;11.58;54.13
42847;BME280;28495;49.916;14.536;2023-04-10T18:08:42;97140.06;;;11.63;54.21
42847;BME280;28495;49.916;14.536;2023-04-10T18:14:03;97145.69;;;11.58;54.43
42847;BME280;28495;49.916;14.536;2023-04-10T18:19:24;97138.97;;;11.55;54.27
42847;BME280;28495;49.916;14.536;2023-04-10T18:24:48;97136.63;;;11.42;54.65
42847;BME280;28495;49.916;14.536;2023-04-10T18:30:09;97138.69;;;11.39;54.34
42847;BME280;28495;49.916;14.536;2023-04-10T18:35:30;97133.97;;;11.23;54.43
42847;BME280;28495;49.916;14.536;2023-04-10T18:40:55;97135.50;;;11.25;54.77
42847;BME280;28495;49.916;14.536;2023-04-10T18:46:16;97123.28;;;11.26;54.39
42847;BME280;28495;49.916;14.536;2023-04-10T18:51:37;97129.59;;;11.13;54.40
42847;BME280;28495;49.916;14.536;2023-04-10T18:57:00;97118.66;;;10.79;54.10
42847;BME280;28495;49.916;14.536;2023-04-10T19:02:21;97129.00;;;10.59;54.49
42847;BME280;28495;49.916;14.536;2023-04-10T19:07:42;97120.28;;;10.39;54.80
42847;BME280;28495;49.916;14.536;2023-04-10T19:13:22;97115.56;;;10.33;54.78
42847;BME280;28495;49.916;14.536;2023-04-10T19:18:46;97112.38;;;10.29;55.02
42847;BME280;28495;49.916;14.536;2023-04-10T19:24:07;97107.13;;;10.19;55.10
42847;BME280;28495;49.916;14.536;2023-04-10T19:29:28;97107.81;;;10.21;55.10
42847;BME280;28495;49.916;14.536;2023-04-10T19:34:50;97099.50;;;10.06;55.08
42847;BME280;28495;49.916;14.536;2023-04-10T19:40:13;97089.84;;;9.97;57.88
42847;BME280;28495;49.916;14.536;2023-04-10T19:45:37;97080.06;;;10.11;56.10
42847;BME280;28495;49.916;14.536;2023-04-10T19:51:02;97076.84;;;9.76;55.63
42847;BME280;28495;49.916;14.536;2023-04-10T19:56:24;97072.84;;;9.51;55.60
42847;BME280;28495;49.916;14.536;2023-04-10T20:01:47;97061.47;;;9.52;56.10
42847;BME280;28495;49.916;14.536;2023-04-10T20:07:08;97054.16;;;9.45;56.50
42847;BME280;28495;49.916;14.536;2023-04-10T20:12:29;97041.19;;;9.34;56.13
42847;BME280;28495;49.916;14.536;2023-04-10T20:17:52;97039.16;;;9.17;56.18
42847;BME280;28495;49.916;14.536;2023-04-10T20:23:13;97029.81;;;9.14;56.48
42847;BME280;28495;49.916;14.536;2023-04-10T20:28:33;97024.63;;;9.14;56.29
42847;BME280;28495;49.916;14.536;2023-04-10T20:33:55;97015.06;;;9.03;56.45
42847;BME280;28495;49.916;14.536;2023-04-10T20:39:16;97011.75;;;9.01;56.80
42847;BME280;28495;49.916;14.536;2023-04-10T20:44:37;97011.81;;;8.90;56.94
42847;BME280;28495;49.916;14.536;2023-04-10T20:49:58;97014.03;;;8.94;56.77
42847;BME280;28495;49.916;14.536;2023-04-10T20:55:19;97011.00;;;8.89;56.81
42847;BME280;28495;49.916;14.536;2023-04-10T21:00:39;97011.38;;;8.84;57.06
42847;BME280;28495;49.916;14.536;2023-04-10T21:06:04;97004.53;;;8.72;57.16
42847;BME280;28495;49.916;14.536;2023-04-10T21:11:26;96995.22;;;8.69;57.40
42847;BME280;28495;49.916;14.536;2023-04-10T21:16:47;96990.88;;;8.47;57.02
42847;BME280;28495;49.916;14.536;2023-04-10T21:22:08;96991.59;;;8.38;57.01
42847;BME280;28495;49.916;14.536;2023-04-10T21:27:30;96986.75;;;8.33;57.14
42847;BME280;28495;49.916;14.536;2023-04-10T21:32:50;96977.22;;;8.22;57.30
42847;BME280;28495;49.916;14.536;2023-04-10T21:38:11;96959.50;;;8.16;57.56
42847;BME280;28495;49.916;14.536;2023-04-10T21:43:32;96954.19;;;8.06;57.44
42847;BME280;28495;49.916;14.536;2023-04-10T21:48:54;96956.34;;;8.01;57.58
42847;BME280;28495;49.916;14.536;2023-04-10T21:54:15;96949.72;;;7.97;57.71
42847;BME280;28495;49.916;14.536;2023-04-10T21:59:36;96953.88;;;7.88;57.63
42847;BME280;28495;49.916;14.536;2023-04-10T22:04:57;96957.28;;;7.89;57.71
42847;BME280;28495;49.916;14.536;2023-04-10T22:10:18;96947.84;;;7.88;57.66
42847;BME280;28495;49.916;14.536;2023-04-10T22:15:39;96932.53;;;7.85;57.78
42847;BME280;28495;49.916;14.536;2023-04-10T22:21:00;96926.63;;;7.83;57.94
42847;BME280;28495;49.916;14.536;2023-04-10T22:26:21;96924.72;;;7.85;57.61
42847;BME280;28495;49.916;14.536;2023-04-10T22:31:42;96908.53;;;7.81;57.80
42847;BME280;28495;49.916;14.536;2023-04-10T22:37:03;96904.66;;;7.75;57.79
42847;BME280;28495;49.916;14.536;2023-04-10T22:42:25;96903.00;;;7.74;57.94
42847;BME280;28495;49.916;14.536;2023-04-10T22:47:46;96900.16;;;7.77;58.12
42847;BME280;28495;49.916;14.536;2023-04-10T22:53:09;96892.84;;;7.83;58.18
42847;BME280;28495;49.916;14.536;2023-04-10T22:58:30;96890.97;;;7.85;58.01
42847;BME280;28495;49.916;14.536;2023-04-10T23:03:51;96889.75;;;7.89;57.85
42847;BME280;28495;49.916;14.536;2023-04-10T23:09:13;96896.97;;;7.85;57.76
42847;BME280;28495;49.916;14.536;2023-04-10T23:14:34;96874.56;;;7.84;57.70
42847;BME280;28495;49.916;14.536;2023-04-10T23:19:55;96864.41;;;7.81;57.83
42847;BME280;28495;49.916;14.536;2023-04-10T23:25:16;96867.25;;;7.78;58.09
42847;BME280;28495;49.916;14.536;2023-04-10T23:30:38;96846.03;;;7.73;57.72
42847;BME280;28495;49.916;14.536;2023-04-10T23:35:59;96819.59;;;7.68;57.70
42847;BME280;28495;49.916;14.536;2023-04-10T23:41:19;96808.38;;;7.67;58.05
42847;BME280;28495;49.916;14.536;2023-04-10T23:46:41;96804.16;;;7.66;58.08
42847;BME280;28495;49.916;14.536;2023-04-10T23:52:01;96804.16;;;7.66;58.17
42847;BME280;28495;49.916;14.536;2023-04-10T23:57:22;96799.06;;;7.65;58.04
